createdAt,value
2022-07-30T00:00:59.263Z,956.33
2022-07-30T00:03:58.640Z,956.31
2022-07-30T00:06:58.878Z,956.26
2022-07-30T00:09:59.005Z,956.27
2022-07-30T00:12:59.081Z,956.2
2022-07-30T00:15:59.026Z,956.23
2022-07-30T00:18:59.974Z,956.14
2022-07-30T00:21:59.034Z,956.19
2022-07-30T00:24:58.769Z,956.29
2022-07-30T00:27:59.315Z,956.31
2022-07-30T00:31:00.008Z,956.24
2022-07-30T00:33:58.610Z,956.27
2022-07-30T00:36:59.869Z,956.22
2022-07-30T00:39:59.784Z,956.24
2022-07-30T00:42:58.554Z,956.2
2022-07-30T00:45:59.553Z,956.24
2022-07-30T00:48:58.708Z,956.31
2022-07-30T00:51:58.703Z,956.21
2022-07-30T00:54:58.505Z,956.23
2022-07-30T00:57:58.570Z,956.26
2022-07-30T01:00:58.596Z,956.27
2022-07-30T01:03:58.221Z,956.26
2022-07-30T01:06:59.582Z,956.27
2022-07-30T01:09:58.850Z,956.29
2022-07-30T01:12:58.542Z,956.24
2022-07-30T01:15:59.063Z,956.2
2022-07-30T01:18:59.117Z,956.17
2022-07-30T01:21:59.140Z,956.14
2022-07-30T01:24:59.225Z,956.14
2022-07-30T01:27:58.969Z,956.17
2022-07-30T01:30:59.833Z,956.11
2022-07-30T01:33:58.635Z,956.12
2022-07-30T01:36:59.419Z,956.06
2022-07-30T01:39:59.764Z,956.06
2022-07-30T01:42:58.739Z,956.13
2022-07-30T01:45:59.058Z,956.18
2022-07-30T01:49:00.672Z,956.19
2022-07-30T01:51:59.069Z,956.22
2022-07-30T01:54:58.593Z,956.18
2022-07-30T01:57:58.968Z,956.19
2022-07-30T02:00:58.710Z,956.23
2022-07-30T02:03:59.522Z,956.13
2022-07-30T02:06:58.827Z,956.16
2022-07-30T02:09:58.874Z,956.17
2022-07-30T02:12:59.369Z,956.22
2022-07-30T02:15:59.403Z,956.05
2022-07-30T02:18:59.341Z,956.16
2022-07-30T02:21:59.141Z,956.19
2022-07-30T02:24:59.272Z,956.12
2022-07-30T02:27:58.898Z,956.25
2022-07-30T02:30:59.113Z,956.25
2022-07-30T02:33:58.979Z,956.22
2022-07-30T02:36:59.252Z,956.09
2022-07-30T02:39:58.950Z,956.24
2022-07-30T02:42:59.543Z,956.28
2022-07-30T02:45:59.215Z,956.28
2022-07-30T02:48:58.829Z,956.34
2022-07-30T02:51:58.588Z,956.27
2022-07-30T02:54:59.042Z,956.33
2022-07-30T02:57:58.799Z,956.27
2022-07-30T03:00:59.701Z,956.31
2022-07-30T03:03:58.999Z,956.38
2022-07-30T03:06:59.502Z,956.3
2022-07-30T03:09:59.588Z,956.25
2022-07-30T03:12:59.030Z,956.27
2022-07-30T03:15:58.640Z,956.2
2022-07-30T03:18:58.670Z,956.39
2022-07-30T03:21:58.463Z,956.33
2022-07-30T03:24:59.673Z,956.45
2022-07-30T03:27:58.632Z,956.3
2022-07-30T03:30:59.297Z,956.34
2022-07-30T03:33:59.216Z,956.46
2022-07-30T03:36:58.905Z,956.45
2022-07-30T03:39:59.360Z,956.49
2022-07-30T03:42:59.114Z,956.46
2022-07-30T03:45:59.425Z,956.51
2022-07-30T03:48:58.809Z,956.52
2022-07-30T03:51:59.008Z,956.63
2022-07-30T03:54:58.407Z,956.77
2022-07-30T03:57:58.634Z,956.82
2022-07-30T04:00:58.880Z,956.89
2022-07-30T04:03:59.526Z,956.83
2022-07-30T04:06:58.860Z,956.95
2022-07-30T04:09:58.755Z,956.9
2022-07-30T04:12:58.777Z,956.98
2022-07-30T04:16:37.851Z,957.01
2022-07-30T04:18:59.396Z,957.23
2022-07-30T04:21:58.568Z,957.14
2022-07-30T04:24:58.544Z,957.14
2022-07-30T04:28:03.599Z,957.17
2022-07-30T04:30:59.255Z,957.17
2022-07-30T04:34:02.908Z,957.27
2022-07-30T04:36:58.727Z,957.16
2022-07-30T04:39:59.590Z,957.41
2022-07-30T04:42:58.711Z,957.39
2022-07-30T04:45:59.000Z,957.33
2022-07-30T04:48:59.409Z,957.38
2022-07-30T04:51:58.255Z,957.41
2022-07-30T04:54:58.611Z,957.44
2022-07-30T04:57:59.251Z,957.49
2022-07-30T05:01:00.135Z,957.44
2022-07-30T05:03:58.752Z,957.52
2022-07-30T05:06:59.379Z,957.44
2022-07-30T05:10:00.026Z,957.42
2022-07-30T05:12:59.514Z,957.51
2022-07-30T05:15:59.398Z,957.48
2022-07-30T05:18:59.704Z,957.48
2022-07-30T05:22:01.472Z,957.45
2022-07-30T05:24:59.418Z,957.6
2022-07-30T05:27:59.279Z,957.71
2022-07-30T05:30:58.828Z,957.73
2022-07-30T05:34:02.530Z,957.66
2022-07-30T05:36:59.211Z,957.78
2022-07-30T05:40:02.670Z,957.75
2022-07-30T05:42:58.646Z,957.74
2022-07-30T05:45:58.763Z,957.64
2022-07-30T05:48:58.982Z,957.67
2022-07-30T05:51:58.565Z,957.7
2022-07-30T05:54:58.766Z,957.7
2022-07-30T05:57:58.391Z,957.79
2022-07-30T06:00:59.264Z,957.77
2022-07-30T06:03:59.401Z,957.86
2022-07-30T06:06:59.142Z,957.78
2022-07-30T06:09:59.316Z,957.9
2022-07-30T06:12:59.180Z,957.86
2022-07-30T06:15:59.418Z,957.9
2022-07-30T06:18:58.641Z,957.94
2022-07-30T06:22:01.697Z,957.85
2022-07-30T06:24:59.130Z,957.94
2022-07-30T06:28:03.909Z,957.86
2022-07-30T06:30:59.555Z,957.83
2022-07-30T06:33:59.079Z,957.83
2022-07-30T06:36:58.998Z,957.9
2022-07-30T06:39:59.633Z,957.87
2022-07-30T06:42:58.640Z,957.95
2022-07-30T06:45:58.934Z,957.96
2022-07-30T06:48:59.037Z,957.98
2022-07-30T06:51:59.282Z,958.05
2022-07-30T06:54:58.956Z,958.03
2022-07-30T06:57:59.038Z,958.0
2022-07-30T07:00:59.165Z,958.07
2022-07-30T07:03:59.391Z,957.99
2022-07-30T07:06:58.830Z,958.02
2022-07-30T07:09:59.622Z,958.13
2022-07-30T07:12:58.740Z,958.19
2022-07-30T07:15:59.173Z,958.15
2022-07-30T07:18:59.292Z,958.17
2022-07-30T07:21:59.130Z,958.19
2022-07-30T07:24:59.591Z,958.18
2022-07-30T07:28:12.721Z,958.2
2022-07-30T07:30:59.421Z,958.18
2022-07-30T07:33:58.911Z,958.19
2022-07-30T07:36:59.317Z,958.2
2022-07-30T07:39:59.808Z,958.2
2022-07-30T07:42:59.279Z,958.22
2022-07-30T07:45:58.842Z,958.14
2022-07-30T07:48:58.902Z,958.17
2022-07-30T07:51:59.408Z,958.13
2022-07-30T07:54:59.215Z,958.17
2022-07-30T07:57:58.761Z,958.17
2022-07-30T08:00:59.792Z,958.13
2022-07-30T08:03:58.522Z,958.13
2022-07-30T08:06:58.950Z,958.25
2022-07-30T08:09:59.250Z,958.19
2022-07-30T08:12:59.157Z,958.19
2022-07-30T08:15:58.646Z,958.09
2022-07-30T08:18:58.717Z,958.19
2022-07-30T08:21:58.963Z,958.24
2022-07-30T08:24:59.045Z,958.14
2022-07-30T08:27:58.717Z,958.2
2022-07-30T08:31:02.145Z,958.2
2022-07-30T08:33:58.695Z,958.2
2022-07-30T08:36:59.016Z,958.24
2022-07-30T08:39:59.541Z,958.17
2022-07-30T08:42:58.412Z,958.29
2022-07-30T08:45:59.067Z,958.39
2022-07-30T08:49:00.546Z,958.3
2022-07-30T08:51:59.100Z,958.29
2022-07-30T08:54:58.970Z,958.32
2022-07-30T08:57:58.826Z,958.39
2022-07-30T09:00:58.918Z,958.27
2022-07-30T09:03:59.290Z,958.37
2022-07-30T09:06:59.979Z,958.34
2022-07-30T09:09:58.845Z,958.43
2022-07-30T09:12:58.874Z,958.32
2022-07-30T09:15:58.650Z,958.33
2022-07-30T09:18:59.156Z,958.37
2022-07-30T09:21:58.443Z,958.4
2022-07-30T09:24:58.793Z,958.42
2022-07-30T09:27:58.586Z,958.37
2022-07-30T09:30:58.681Z,958.48
2022-07-30T09:33:59.232Z,958.4
2022-07-30T09:36:59.385Z,958.36
2022-07-30T09:39:59.885Z,958.4
2022-07-30T09:42:58.697Z,958.48
2022-07-30T09:45:58.784Z,958.59
2022-07-30T09:48:58.402Z,958.48
2022-07-30T09:51:58.622Z,958.49
2022-07-30T09:54:59.070Z,958.59
2022-07-30T09:57:59.263Z,958.58
2022-07-30T10:01:00.124Z,958.56
2022-07-30T10:03:59.375Z,958.45
2022-07-30T10:06:59.050Z,958.54
2022-07-30T10:09:59.149Z,958.53
2022-07-30T10:12:58.429Z,958.47
2022-07-30T10:15:59.583Z,958.49
2022-07-30T10:18:59.184Z,958.47
2022-07-30T10:21:59.446Z,958.43
2022-07-30T10:24:58.752Z,958.41
2022-07-30T10:27:58.700Z,958.43
2022-07-30T10:30:59.874Z,958.52
2022-07-30T10:33:58.728Z,958.52
2022-07-30T10:36:58.580Z,958.49
2022-07-30T10:39:58.865Z,958.41
2022-07-30T10:42:58.611Z,958.4
2022-07-30T10:45:59.471Z,958.41
2022-07-30T10:48:59.645Z,958.49
2022-07-30T10:51:59.368Z,958.36
2022-07-30T10:54:59.207Z,958.4
2022-07-30T10:57:59.679Z,958.35
2022-07-30T11:00:59.757Z,958.35
2022-07-30T11:04:16.610Z,958.43
2022-07-30T11:06:59.117Z,958.44
2022-07-30T11:10:08.943Z,958.35
2022-07-30T11:12:59.827Z,958.38
2022-07-30T11:15:58.642Z,958.41
2022-07-30T11:19:19.397Z,958.4
2022-07-30T11:21:59.687Z,958.46
2022-07-30T11:24:58.331Z,958.38
2022-07-30T11:27:58.741Z,958.4
2022-07-30T11:30:59.147Z,958.48
2022-07-30T11:33:58.645Z,958.44
2022-07-30T11:36:59.315Z,958.38
2022-07-30T11:39:59.225Z,958.44
2022-07-30T11:42:59.111Z,958.25
2022-07-30T11:45:58.877Z,958.17
2022-07-30T11:48:58.706Z,958.33
2022-07-30T11:51:59.412Z,958.42
2022-07-30T11:54:58.524Z,958.33
2022-07-30T11:57:59.414Z,958.36
2022-07-30T12:00:59.715Z,958.33
2022-07-30T12:03:58.570Z,958.36
2022-07-30T12:06:58.790Z,958.32
2022-07-30T12:09:59.248Z,958.28
2022-07-30T12:12:59.275Z,958.4
2022-07-30T12:15:59.085Z,958.27
2022-07-30T12:18:58.561Z,958.23
2022-07-30T12:21:58.392Z,958.34
2022-07-30T12:24:59.452Z,958.4
2022-07-30T12:27:59.054Z,958.35
2022-07-30T12:31:00.128Z,958.25
2022-07-30T12:33:59.337Z,958.27
2022-07-30T12:36:58.432Z,958.27
2022-07-30T12:39:59.239Z,958.32
2022-07-30T12:42:59.352Z,958.25
2022-07-30T12:45:58.817Z,958.22
2022-07-30T12:48:58.998Z,958.21
2022-07-30T12:52:00.623Z,958.3
2022-07-30T12:54:58.606Z,958.19
2022-07-30T12:57:59.372Z,958.15
2022-07-30T13:00:59.488Z,958.05
2022-07-30T13:03:59.631Z,958.13
2022-07-30T13:06:58.518Z,958.16
2022-07-30T13:09:59.675Z,958.23
2022-07-30T13:12:58.625Z,958.13
2022-07-30T13:15:59.392Z,958.09
2022-07-30T13:18:58.394Z,958.07
2022-07-30T13:21:58.740Z,958.09
2022-07-30T13:24:59.205Z,958.1
2022-07-30T13:27:59.224Z,958.11
2022-07-30T13:30:59.417Z,958.08
2022-07-30T13:33:59.641Z,958.04
2022-07-30T13:36:59.406Z,957.96
2022-07-30T13:39:58.607Z,957.99
2022-07-30T13:42:58.940Z,957.93
2022-07-30T13:45:59.978Z,957.92
2022-07-30T13:48:58.594Z,957.93
2022-07-30T13:51:59.072Z,957.87
2022-07-30T13:54:59.202Z,957.83
2022-07-30T13:57:59.243Z,957.77
2022-07-30T14:00:59.731Z,957.7
2022-07-30T14:03:59.015Z,957.8
2022-07-30T14:06:59.699Z,957.79
2022-07-30T14:09:59.169Z,957.72
2022-07-30T14:12:59.546Z,957.8
2022-07-30T14:15:59.543Z,957.68
2022-07-30T14:18:59.940Z,957.74
2022-07-30T14:21:59.022Z,957.77
2022-07-30T14:24:59.412Z,957.7
2022-07-30T14:27:59.267Z,957.64
2022-07-30T14:30:58.881Z,957.64
2022-07-30T14:33:58.857Z,957.71
2022-07-30T14:36:59.402Z,957.62
2022-07-30T14:39:59.375Z,957.68
2022-07-30T14:42:59.066Z,957.66
2022-07-30T14:45:59.011Z,957.68
2022-07-30T14:48:58.894Z,957.71
2022-07-30T14:51:59.014Z,957.65
2022-07-30T14:54:59.057Z,957.56
2022-07-30T14:57:59.300Z,957.53
2022-07-30T15:00:59.029Z,957.61
2022-07-30T15:03:59.036Z,957.61
2022-07-30T15:06:59.005Z,957.6
2022-07-30T15:09:59.155Z,957.57
2022-07-30T15:12:59.128Z,957.6
2022-07-30T15:15:59.427Z,957.52
2022-07-30T15:18:59.302Z,957.55
2022-07-30T15:21:58.780Z,957.67
2022-07-30T15:24:58.866Z,957.67
2022-07-30T15:27:59.282Z,957.67
2022-07-30T15:30:58.473Z,957.66
2022-07-30T15:33:59.469Z,957.75
2022-07-30T15:36:58.675Z,957.85
2022-07-30T15:39:58.664Z,957.81
2022-07-30T15:42:58.367Z,957.77
2022-07-30T15:45:58.681Z,957.85
2022-07-30T15:48:58.513Z,957.75
2022-07-30T15:51:58.837Z,957.75
2022-07-30T15:54:58.845Z,957.72
2022-07-30T15:57:59.305Z,957.65
2022-07-30T16:01:00.424Z,957.72
2022-07-30T16:03:59.235Z,957.69
2022-07-30T16:06:59.264Z,957.65
2022-07-30T16:10:00.006Z,957.62
2022-07-30T16:12:59.020Z,957.62
2022-07-30T16:15:59.632Z,957.59
2022-07-30T16:18:59.106Z,957.6
2022-07-30T16:21:59.289Z,957.51
2022-07-30T16:24:58.849Z,957.54
2022-07-30T16:27:58.895Z,957.49
2022-07-30T16:30:59.592Z,957.53
2022-07-30T16:33:58.721Z,957.56
2022-07-30T16:36:58.762Z,957.55
2022-07-30T16:39:59.567Z,957.65
2022-07-30T16:42:58.638Z,957.63
2022-07-30T16:45:58.900Z,957.62
2022-07-30T16:48:59.147Z,957.66
2022-07-30T16:51:58.465Z,957.59
2022-07-30T16:54:58.936Z,957.65
2022-07-30T16:57:59.353Z,957.58
2022-07-30T17:00:59.417Z,957.65
2022-07-30T17:03:58.468Z,957.62
2022-07-30T17:06:58.511Z,957.64
2022-07-30T17:09:59.476Z,957.58
2022-07-30T17:12:58.851Z,957.72
2022-07-30T17:15:59.373Z,957.64
2022-07-30T17:18:58.812Z,957.62
2022-07-30T17:21:59.085Z,957.67
2022-07-30T17:24:58.521Z,957.69
2022-07-30T17:27:58.898Z,957.81
2022-07-30T17:30:59.301Z,957.79
2022-07-30T17:33:58.744Z,957.79
2022-07-30T17:36:59.527Z,957.79
2022-07-30T17:40:19.226Z,957.77
2022-07-30T17:42:59.697Z,957.84
2022-07-30T17:45:59.034Z,957.87
2022-07-30T17:48:59.201Z,957.92
2022-07-30T17:51:58.903Z,957.87
2022-07-30T17:54:59.087Z,958.0
2022-07-30T17:57:59.087Z,957.97
2022-07-30T18:01:26.420Z,957.94
2022-07-30T18:03:59.377Z,957.95
2022-07-30T18:06:59.297Z,958.03
2022-07-30T18:09:59.889Z,958.08
2022-07-30T18:12:59.084Z,958.13
2022-07-30T18:15:58.935Z,958.14
2022-07-30T18:18:58.678Z,958.18
2022-07-30T18:21:58.752Z,958.16
2022-07-30T18:24:59.203Z,958.15
2022-07-30T18:27:59.350Z,958.21
2022-07-30T18:30:59.374Z,958.18
2022-07-30T18:33:59.178Z,958.25
2022-07-30T18:36:59.042Z,958.22
2022-07-30T18:39:59.087Z,958.2
2022-07-30T18:42:59.076Z,958.29
2022-07-30T18:45:59.324Z,958.28
2022-07-30T18:49:15.108Z,958.36
2022-07-30T18:52:00.360Z,958.38
2022-07-30T18:54:59.642Z,958.39
2022-07-30T18:57:58.773Z,958.45
2022-07-30T19:00:59.839Z,958.45
2022-07-30T19:03:59.214Z,958.5
2022-07-30T19:06:58.923Z,958.48
2022-07-30T19:09:59.180Z,958.54
2022-07-30T19:12:59.464Z,958.58
2022-07-30T19:15:59.561Z,958.59
2022-07-30T19:18:58.822Z,958.57
2022-07-30T19:21:59.903Z,958.57
2022-07-30T19:24:59.109Z,958.66
2022-07-30T19:27:59.350Z,958.66
2022-07-30T19:30:58.832Z,958.7
2022-07-30T19:33:59.393Z,958.75
2022-07-30T19:36:59.253Z,958.7
2022-07-30T19:40:06.811Z,958.78
2022-07-30T19:42:59.123Z,958.76
2022-07-30T19:45:59.750Z,958.76
2022-07-30T19:48:59.276Z,958.87
2022-07-30T19:52:10.445Z,958.87
2022-07-30T19:54:58.723Z,958.92
2022-07-30T19:57:59.069Z,958.9
2022-07-30T20:00:59.926Z,958.95
2022-07-30T20:04:01.148Z,958.93
2022-07-30T20:06:59.403Z,958.97
2022-07-30T20:09:58.999Z,958.98
2022-07-30T20:12:59.564Z,958.96
2022-07-30T20:15:59.204Z,958.99
2022-07-30T20:18:59.322Z,959.16
2022-07-30T20:21:58.454Z,959.06
2022-07-30T20:24:59.083Z,959.12
2022-07-30T20:27:59.111Z,959.19
2022-07-30T20:31:00.427Z,959.1
2022-07-30T20:33:58.618Z,959.12
2022-07-30T20:36:58.833Z,959.28
2022-07-30T20:39:59.465Z,959.18
2022-07-30T20:42:59.978Z,959.16
2022-07-30T20:45:59.258Z,959.25
2022-07-30T20:48:59.430Z,959.16
2022-07-30T20:51:58.901Z,959.24
2022-07-30T20:54:58.902Z,959.25
2022-07-30T20:58:08.024Z,959.34
2022-07-30T21:00:58.775Z,959.37
2022-07-30T21:03:59.373Z,959.28
2022-07-30T21:06:59.399Z,959.34
2022-07-30T21:09:59.449Z,959.34
2022-07-30T21:16:03.087Z,959.34
2022-07-30T21:18:58.384Z,959.28
2022-07-30T21:21:58.971Z,959.21
2022-07-30T21:24:59.903Z,959.26
2022-07-30T21:27:58.917Z,959.32
2022-07-30T21:30:59.740Z,959.42
2022-07-30T21:33:59.051Z,959.35
2022-07-30T21:36:58.904Z,959.33
2022-07-30T21:39:59.806Z,959.19
2022-07-30T21:42:58.691Z,959.26
2022-07-30T21:45:58.798Z,959.33
2022-07-30T21:48:59.654Z,959.39
2022-07-30T21:51:58.980Z,959.29
2022-07-30T21:54:59.321Z,959.36
2022-07-30T21:57:58.656Z,959.36
2022-07-30T22:00:58.621Z,959.33
2022-07-30T22:04:02.915Z,959.31
2022-07-30T22:07:00.572Z,959.41
2022-07-30T22:09:59.633Z,959.35
2022-07-30T22:12:58.589Z,959.32
2022-07-30T22:15:59.740Z,959.28
2022-07-30T22:18:59.000Z,959.32
2022-07-30T22:22:01.923Z,959.37
2022-07-30T22:24:59.956Z,959.34
2022-07-30T22:27:58.883Z,959.37
2022-07-30T22:30:58.844Z,959.39
2022-07-30T22:33:59.467Z,959.28
2022-07-30T22:36:58.380Z,959.38
2022-07-30T22:39:58.692Z,959.3
2022-07-30T22:42:59.601Z,959.35
2022-07-30T22:45:58.553Z,959.36
2022-07-30T22:48:59.808Z,959.3
2022-07-30T22:52:03.658Z,959.34
2022-07-30T22:55:08.729Z,959.25
2022-07-30T22:57:59.386Z,959.22
2022-07-30T23:00:59.497Z,959.24
2022-07-30T23:03:59.225Z,959.3
2022-07-30T23:06:58.403Z,959.37
2022-07-30T23:09:59.325Z,959.31
2022-07-30T23:12:26.913Z,959.31
2022-07-30T23:12:58.763Z,959.33
2022-07-30T23:15:59.137Z,959.28
2022-07-30T23:18:58.567Z,959.25
2022-07-30T23:21:59.697Z,959.18
2022-07-30T23:24:59.198Z,959.22
2022-07-30T23:27:58.353Z,959.22
2022-07-30T23:31:09.271Z,959.18
2022-07-30T23:33:58.845Z,959.1
2022-07-30T23:36:59.292Z,959.14
2022-07-30T23:39:58.927Z,959.09
2022-07-30T23:42:58.771Z,959.14
2022-07-30T23:45:58.952Z,959.12
2022-07-30T23:48:58.872Z,959.1
2022-07-30T23:51:58.649Z,959.06
2022-07-30T23:54:59.136Z,959.14
2022-07-30T23:57:59.356Z,959.1
